ETAR

Ramstein Air Base Airport

Ramstein, Germany
TAF ETAR 171810Z 1718/1824 VRB06KT 9999 SKC QNH3004INS BECMG 1800/1801 VRB06KT 8000 BR SKC QNH3008INS BECMG 1806/1807 03009KT 9999 NSW BKN020 QNH3011INS BECMG 1821/1822 VRB06KT 8000 BR BKN015 QNH3017INS TX22/1814Z TN03/1805Z
Issued Valid From Valid To
Oct-17 @ 18:10 UTC
(2 hours ago)
Oct-17 @ 18:00 UTC
(3 hours ago)
Oct-19 @ 00:00 UTC
(-1 days ago)
Oct-17 @ 18:00 to Oct-18 @ 00:00
TAF ETAR 171810Z 1718/1824 VRB06KT 9999 SKC QNH3004INS
Wind Visibility Clouds Readings
Variable at 6 knots 10,000+ meters
  • Clear skies
Altimeter 30.03" Hg
Pressure 1017 hPa
Becoming Oct-18 @ 00:00 to Oct-18 @ 06:00
BECMG 1800/1801 VRB06KT 8000 BR SKC QNH3008INS
Wind Visibility Clouds Conditions Readings
Variable at 6 knots 7,998 meters
  • Clear skies
  • Mist
Altimeter 30.09" Hg
Pressure 1019 hPa
Becoming Oct-18 @ 06:00 to Oct-18 @ 21:00
BECMG 1806/1807 03009KT 9999 NSW BKN020 QNH3011INS
Wind Visibility Clouds Conditions Readings
30° at 9 knots 10,000+ meters
  • Broken at 2,000' AGL
Altimeter 30.12" Hg
Pressure 1020 hPa
Becoming Oct-18 @ 21:00 to Oct-19 @ 00:00
BECMG 1821/1822 VRB06KT 8000 BR BKN015 QNH3017INS TX22/1814Z TN03/1805Z
Wind Visibility Clouds Conditions Readings
Variable at 6 knots 7,998 meters
  • Broken at 1,500' AGL
  • Mist
Altimeter 30.18" Hg
Pressure 1022 hPa
TAF ETAR 171810Z 1718/1824 VRB06KT 9999 SKC QNH3004INS BECMG 1800/1801 VRB06KT 8000 BR SKC QNH3008INS BECMG 1806/1807 03009KT 9999 NSW BKN020 QNH3011INS BECMG 1821/1822 VRB06KT 8000 BR BKN015 QNH3017INS TX22/1814Z TN03/1805Z
Issued Oct-17 @ 18:10 UTC
(2 hours ago)
Valid From Oct-17 @ 18:00 UTC
(3 hours ago)
Valid To Oct-19 @ 00:00 UTC
(-1 days ago)
Oct-17 @ 18:00 - Oct-18 @ 00:00
Wind Visibility
Variable at 6 knots 10,000+ meters
Clouds
  • Clear skies
Becoming Oct-18 @ 00:00 - Oct-18 @ 06:00
Wind Visibility
Variable at 6 knots 7,998 meters
Clouds
  • Clear skies
Conditions
  • Mist
Becoming Oct-18 @ 06:00 - Oct-18 @ 21:00
Wind Visibility
30° at 9 knots 10,000+ meters
Clouds
  • Broken at 2,000' AGL
Conditions
Becoming Oct-18 @ 21:00 - Oct-19 @ 00:00
Wind Visibility
Variable at 6 knots 7,998 meters
Clouds
  • Broken at 1,500' AGL
Conditions
  • Mist